METAR Data
IDs: Format: Raw Decoded Include TAF

Data at: 2107 UTC 01 Dec 2021

METAR for:K4I3 (Mount Vernon/Knox Cn, OH, US)
Text:K4I3 012055Z AUTO 12005KT 4SM RA BKN007 BKN010 OVC060 04/04 A2993 RMK AO2 P0002
Temperature: 4.0°C ( 39°F)
Dewpoint: 4.0°C ( 39°F) [RH = 100%]
Pressure (altimeter):29.93 inches Hg (1013.6 mb)
Winds:from the ESE (120 degrees) at 6 MPH (5 knots; 2.6 m/s)
Visibility: 4 sm ( 6 km)
Ceiling:700 feet AGL
Clouds: broken clouds at 700 feet AGL, broken clouds at 1000 feet AGL, overcast cloud deck at 6000 feet AGL
Weather:RA (moderate rain)
QC Flag:automated observation with no human augmentation